sensor_id;sensor_type;location;lat;lon;timestamp;pressure;altitude;pressure_sealevel;temperature;humidity
20622;BME280;10470;42.670;23.354;2023-02-08T00:01:44;96350.09;;;-4.42;100.00
20622;BME280;10470;42.670;23.354;2023-02-08T00:04:30;96349.03;;;-4.41;100.00
20622;BME280;10470;42.670;23.354;2023-02-08T00:07:15;96353.69;;;-4.46;100.00
20622;BME280;10470;42.670;23.354;2023-02-08T00:10:00;96341.97;;;-4.45;100.00
20622;BME280;10470;42.670;23.354;2023-02-08T00:12:49;96356.19;;;-4.50;100.00
20622;BME280;10470;42.670;23.354;2023-02-08T00:15:43;96353.22;;;-4.40;100.00
20622;BME280;10470;42.670;23.354;2023-02-08T00:18:29;96364.31;;;-4.46;100.00
20622;BME280;10470;42.670;23.354;2023-02-08T00:21:16;96363.25;;;-4.54;100.00
20622;BME280;10470;42.670;23.354;2023-02-08T00:24:01;96365.59;;;-4.26;100.00
20622;BME280;10470;42.670;23.354;2023-02-08T00:26:47;96362.63;;;-4.33;100.00
20622;BME280;10470;42.670;23.354;2023-02-08T00:29:32;96369.34;;;-4.36;100.00
20622;BME280;10470;42.670;23.354;2023-02-08T00:32:18;96372.66;;;-4.30;100.00
20622;BME280;10470;42.670;23.354;2023-02-08T00:35:04;96381.25;;;-4.42;100.00
20622;BME280;10470;42.670;23.354;2023-02-08T00:37:49;96379.38;;;-4.33;100.00
20622;BME280;10470;42.670;23.354;2023-02-08T00:40:35;96385.31;;;-4.36;100.00
20622;BME280;10470;42.670;23.354;2023-02-08T00:43:20;96390.81;;;-4.32;100.00
20622;BME280;10470;42.670;23.354;2023-02-08T00:46:06;96392.69;;;-4.24;100.00
20622;BME280;10470;42.670;23.354;2023-02-08T00:48:53;96399.22;;;-4.39;100.00
20622;BME280;10470;42.670;23.354;2023-02-08T00:51:39;96395.50;;;-4.38;100.00
20622;BME280;10470;42.670;23.354;2023-02-08T00:54:24;96395.50;;;-4.38;100.00
20622;BME280;10470;42.670;23.354;2023-02-08T00:57:09;96388.91;;;-4.32;100.00
20622;BME280;10470;42.670;23.354;2023-02-08T00:59:55;96391.72;;;-4.28;100.00
20622;BME280;10470;42.670;23.354;2023-02-08T01:02:40;96385.16;;;-4.40;100.00
20622;BME280;10470;42.670;23.354;2023-02-08T01:05:26;96407.69;;;-4.37;100.00
20622;BME280;10470;42.670;23.354;2023-02-08T01:08:11;96401.59;;;-4.29;100.00
20622;BME280;10470;42.670;23.354;2023-02-08T01:11:05;96402.41;;;-3.85;100.00
20622;BME280;10470;42.670;23.354;2023-02-08T01:13:53;96401.13;;;-4.05;100.00
20622;BME280;10470;42.670;23.354;2023-02-08T01:16:39;96409.91;;;-4.13;100.00
20622;BME280;10470;42.670;23.354;2023-02-08T01:19:25;96407.41;;;-4.35;100.00
20622;BME280;10470;42.670;23.354;2023-02-08T01:22:10;96396.13;;;-4.24;100.00
20622;BME280;10470;42.670;23.354;2023-02-08T01:24:56;96392.69;;;-3.98;100.00
20622;BME280;10470;42.670;23.354;2023-02-08T01:27:42;96389.88;;;-4.28;100.00
20622;BME280;10470;42.670;23.354;2023-02-08T01:30:27;96387.69;;;-4.17;100.00
20622;BME280;10470;42.670;23.354;2023-02-08T01:33:13;96386.59;;;-4.25;100.00
20622;BME280;10470;42.670;23.354;2023-02-08T01:35:58;96385.97;;;-4.22;100.00
20622;BME280;10470;42.670;23.354;2023-02-08T01:38:44;96388.28;;;-4.29;100.00
20622;BME280;10470;42.670;23.354;2023-02-08T01:41:33;96396.28;;;-4.37;100.00
20622;BME280;10470;42.670;23.354;2023-02-08T01:47:43;96398.47;;;-4.31;100.00
20622;BME280;10470;42.670;23.354;2023-02-08T01:50:33;96395.50;;;-4.38;100.00
20622;BME280;10470;42.670;23.354;2023-02-08T01:53:21;96393.28;;;-4.45;100.00
20622;BME280;10470;42.670;23.354;2023-02-08T01:56:12;96396.41;;;-4.51;100.00
20622;BME280;10470;42.670;23.354;2023-02-08T01:59:02;96413.16;;;-4.33;100.00
20622;BME280;10470;42.670;23.354;2023-02-08T02:01:50;96397.03;;;-4.46;100.00
20622;BME280;10470;42.670;23.354;2023-02-08T02:04:36;96407.41;;;-4.35;100.00
20622;BME280;10470;42.670;23.354;2023-02-08T02:07:25;96415.53;;;-4.41;100.00
20622;BME280;10470;42.670;23.354;2023-02-08T02:10:17;96407.78;;;-4.59;100.00
20622;BME280;10470;42.670;23.354;2023-02-08T02:13:17;96413.16;;;-4.51;100.00
20622;BME280;10470;42.670;23.354;2023-02-08T02:16:03;96415.03;;;-4.43;100.00
20622;BME280;10470;42.670;23.354;2023-02-08T02:18:49;96408.16;;;-4.26;100.00
20622;BME280;10470;42.670;23.354;2023-02-08T02:34:33;96437.78;;;-4.19;100.00
20622;BME280;10470;42.670;23.354;2023-02-08T02:37:47;96434.81;;;-4.18;100.00
20622;BME280;10470;42.670;23.354;2023-02-08T02:43:47;96446.19;;;-4.26;100.00
20622;BME280;10470;42.670;23.354;2023-02-08T02:46:43;96448.56;;;-4.24;100.00
20622;BME280;10470;42.670;23.354;2023-02-08T02:49:52;96444.78;;;-4.32;100.00
20622;BME280;10470;42.670;23.354;2023-02-08T02:52:47;96445.44;;;-4.26;100.00
20622;BME280;10470;42.670;23.354;2023-02-08T02:55:41;96436.22;;;-4.20;100.00
20622;BME280;10470;42.670;23.354;2023-02-08T02:58:29;96435.13;;;-4.10;100.00
20622;BME280;10470;42.670;23.354;2023-02-08T03:01:23;96439.94;;;-4.21;100.00
20622;BME280;10470;42.670;23.354;2023-02-08T03:04:16;96452.03;;;-3.98;100.00
20622;BME280;10470;42.670;23.354;2023-02-08T03:13:25;96446.50;;;-4.36;100.00
20622;BME280;10470;42.670;23.354;2023-02-08T03:22:48;96443.16;;;-4.59;100.00
20622;BME280;10470;42.670;23.354;2023-02-08T03:25:50;96440.19;;;-4.57;100.00
20622;BME280;10470;42.670;23.354;2023-02-08T03:31:52;96441.16;;;-4.53;100.00
20622;BME280;10470;42.670;23.354;2023-02-08T03:34:53;96435.97;;;-4.58;100.00
20622;BME280;10470;42.670;23.354;2023-02-08T03:40:45;96435.75;;;-4.71;100.00
20622;BME280;10470;42.670;23.354;2023-02-08T03:43:39;96437.84;;;-4.59;100.00
20622;BME280;10470;42.670;23.354;2023-02-08T03:46:31;96446.34;;;-4.40;100.00
20622;BME280;10470;42.670;23.354;2023-02-08T03:49:21;96449.28;;;-4.50;100.00
20622;BME280;10470;42.670;23.354;2023-02-08T03:52:09;96440.38;;;-4.45;100.00
20622;BME280;10470;42.670;23.354;2023-02-08T03:55:03;96451.16;;;-4.59;100.00
20622;BME280;10470;42.670;23.354;2023-02-08T03:57:56;96449.91;;;-4.53;100.00
20622;BME280;10470;42.670;23.354;2023-02-08T04:00:47;96460.84;;;-4.54;100.00
20622;BME280;10470;42.670;23.354;2023-02-08T04:03:36;96456.78;;;-4.52;100.00
20622;BME280;10470;42.670;23.354;2023-02-08T04:06:23;96458.31;;;-4.59;100.00
20622;BME280;10470;42.670;23.354;2023-02-08T04:09:08;96461.31;;;-4.52;100.00
20622;BME280;10470;42.670;23.354;2023-02-08T04:11:54;96464.44;;;-4.59;100.00
20622;BME280;10470;42.670;23.354;2023-02-08T04:14:39;96470.34;;;-4.62;100.00
20622;BME280;10470;42.670;23.354;2023-02-08T04:17:24;96464.03;;;-4.75;100.00
20622;BME280;10470;42.670;23.354;2023-02-08T04:20:10;96473.41;;;-4.77;100.00
20622;BME280;10470;42.670;23.354;2023-02-08T04:22:56;96473.72;;;-4.79;100.00
20622;BME280;10470;42.670;23.354;2023-02-08T04:25:41;96465.50;;;-5.00;100.00
20622;BME280;10470;42.670;23.354;2023-02-08T04:28:27;96465.72;;;-4.88;100.00
20622;BME280;10470;42.670;23.354;2023-02-08T04:31:13;96475.81;;;-4.98;100.00
20622;BME280;10470;42.670;23.354;2023-02-08T04:33:58;96463.75;;;-5.05;100.00
20622;BME280;10470;42.670;23.354;2023-02-08T04:36:43;96472.75;;;-5.14;100.00
20622;BME280;10470;42.670;23.354;2023-02-08T04:39:29;96460.44;;;-5.10;100.00
20622;BME280;10470;42.670;23.354;2023-02-08T04:42:14;96469.84;;;-5.04;100.00
20622;BME280;10470;42.670;23.354;2023-02-08T04:45:00;96479.56;;;-4.99;100.00
20622;BME280;10470;42.670;23.354;2023-02-08T04:47:45;96481.19;;;-4.90;100.00
20622;BME280;10470;42.670;23.354;2023-02-08T04:50:30;96486.66;;;-4.86;100.00
20622;BME280;10470;42.670;23.354;2023-02-08T04:53:16;96490.69;;;-4.97;100.00
20622;BME280;10470;42.670;23.354;2023-02-08T04:56:02;96490.97;;;-4.99;100.00
20622;BME280;10470;42.670;23.354;2023-02-08T04:58:47;96506.94;;;-4.99;100.00
20622;BME280;10470;42.670;23.354;2023-02-08T05:01:33;96516.13;;;-5.05;100.00
20622;BME280;10470;42.670;23.354;2023-02-08T05:04:18;96522.25;;;-4.96;100.00
20622;BME280;10470;42.670;23.354;2023-02-08T05:07:04;96510.47;;;-5.03;100.00
20622;BME280;10470;42.670;23.354;2023-02-08T05:09:50;96527.13;;;-4.98;100.00
20622;BME280;10470;42.670;23.354;2023-02-08T05:12:36;96518.94;;;-5.01;100.00
20622;BME280;10470;42.670;23.354;2023-02-08T05:15:21;96525.47;;;-5.08;100.00
20622;BME280;10470;42.670;23.354;2023-02-08T05:18:06;96529.41;;;-5.05;100.00
20622;BME280;10470;42.670;23.354;2023-02-08T05:20:59;96535.25;;;-5.17;100.00
20622;BME280;10470;42.670;23.354;2023-02-08T05:23:45;96542.25;;;-4.98;100.00
20622;BME280;10470;42.670;23.354;2023-02-08T05:26:30;96536.13;;;-5.08;100.00
20622;BME280;10470;42.670;23.354;2023-02-08T05:29:16;96539.13;;;-5.00;100.00
20622;BME280;10470;42.670;23.354;2023-02-08T05:32:01;96538.66;;;-5.02;100.00
20622;BME280;10470;42.670;23.354;2023-02-08T05:34:47;96544.19;;;-4.90;100.00
20622;BME280;10470;42.670;23.354;2023-02-08T05:37:32;96550.28;;;-4.90;100.00
20622;BME280;10470;42.670;23.354;2023-02-08T05:40:18;96551.81;;;-4.97;100.00
20622;BME280;10470;42.670;23.354;2023-02-08T05:43:03;96556.81;;;-4.96;100.00
20622;BME280;10470;42.670;23.354;2023-02-08T05:45:49;96555.19;;;-5.06;100.00
20622;BME280;10470;42.670;23.354;2023-02-08T05:48:35;96556.47;;;-5.03;100.00
20622;BME280;10470;42.670;23.354;2023-02-08T05:51:21;96569.56;;;-4.84;100.00
20622;BME280;10470;42.670;23.354;2023-02-08T05:54:06;96558.28;;;-4.90;100.00
20622;BME280;10470;42.670;23.354;2023-02-08T06:00:34;96566.00;;;-5.02;100.00
20622;BME280;10470;42.670;23.354;2023-02-08T06:03:46;96560.47;;;-4.83;100.00
20622;BME280;10470;42.670;23.354;2023-02-08T06:07:02;96563.94;;;-4.83;100.00
20622;BME280;10470;42.670;23.354;2023-02-08T06:13:35;96552.34;;;-4.87;100.00
20622;BME280;10470;42.670;23.354;2023-02-08T06:16:59;96561.91;;;-5.08;100.00
20622;BME280;10470;42.670;23.354;2023-02-08T06:19:59;96556.63;;;-4.77;100.00
20622;BME280;10470;42.670;23.354;2023-02-08T06:22:45;96568.22;;;-4.73;100.00
20622;BME280;10470;42.670;23.354;2023-02-08T06:25:42;96563.09;;;-4.69;100.00
20622;BME280;10470;42.670;23.354;2023-02-08T06:28:40;96576.56;;;-4.88;100.00
20622;BME280;10470;42.670;23.354;2023-02-08T06:31:49;96568.09;;;-4.68;100.00
20622;BME280;10470;42.670;23.354;2023-02-08T06:34:37;96571.75;;;-4.55;100.00
20622;BME280;10470;42.670;23.354;2023-02-08T06:37:32;96583.28;;;-4.28;100.00
20622;BME280;10470;42.670;23.354;2023-02-08T06:47:07;96583.44;;;-4.33;100.00
20622;BME280;10470;42.670;23.354;2023-02-08T06:50:21;96573.41;;;-4.36;100.00
20622;BME280;10470;42.670;23.354;2023-02-08T06:53:07;96583.44;;;-4.33;100.00
20622;BME280;10470;42.670;23.354;2023-02-08T06:56:09;96591.19;;;-4.14;100.00
20622;BME280;10470;42.670;23.354;2023-02-08T06:59:03;96597.66;;;-3.98;100.00
20622;BME280;10470;42.670;23.354;2023-02-08T07:02:18;96599.28;;;-3.80;100.00
20622;BME280;10470;42.670;23.354;2023-02-08T07:05:11;96601.88;;;-3.97;100.00
20622;BME280;10470;42.670;23.354;2023-02-08T07:08:40;96598.94;;;-3.87;100.00
20622;BME280;10470;42.670;23.354;2023-02-08T07:20:14;96624.66;;;-3.74;100.00
20622;BME280;10470;42.670;23.354;2023-02-08T07:23:06;96629.31;;;-3.39;100.00
20622;BME280;10470;42.670;23.354;2023-02-08T07:26:03;96623.34;;;-3.36;100.00
20622;BME280;10470;42.670;23.354;2023-02-08T07:28:49;96629.91;;;-3.51;100.00
20622;BME280;10470;42.670;23.354;2023-02-08T07:31:38;96636.06;;;-3.42;100.00
20622;BME280;10470;42.670;23.354;2023-02-08T07:34:24;96633.38;;;-3.24;100.00
20622;BME280;10470;42.670;23.354;2023-02-08T07:37:32;96638.72;;;-3.24;100.00
20622;BME280;10470;42.670;23.354;2023-02-08T07:45:05;96641.91;;;-2.79;100.00
20622;BME280;10470;42.670;23.354;2023-02-08T07:48:09;96639.38;;;-2.67;100.00
20622;BME280;10470;42.670;23.354;2023-02-08T07:50:58;96636.56;;;-2.79;100.00
20622;BME280;10470;42.670;23.354;2023-02-08T07:53:53;96634.84;;;-3.01;100.00
20622;BME280;10470;42.670;23.354;2023-02-08T07:56:41;96630.44;;;-3.23;100.00
20622;BME280;10470;42.670;23.354;2023-02-08T07:59:30;96640.31;;;-2.97;100.00
20622;BME280;10470;42.670;23.354;2023-02-08T08:02:15;96640.19;;;-2.75;100.00
20622;BME280;10470;42.670;23.354;2023-02-08T08:05:28;96631.22;;;-2.61;100.00
20622;BME280;10470;42.670;23.354;2023-02-08T08:08:17;96631.81;;;-2.47;100.00
20622;BME280;10470;42.670;23.354;2023-02-08T08:11:05;96630.59;;;-2.58;100.00
20622;BME280;10470;42.670;23.354;2023-02-08T08:13:53;96621.94;;;-2.73;100.00
20622;BME280;10470;42.670;23.354;2023-02-08T08:16:39;96634.00;;;-2.49;100.00
20622;BME280;10470;42.670;23.354;2023-02-08T08:19:27;96627.97;;;-2.11;100.00
20622;BME280;10470;42.670;23.354;2023-02-08T08:22:13;96624.81;;;-2.13;100.00
20622;BME280;10470;42.670;23.354;2023-02-08T08:24:59;96625.25;;;-2.03;100.00
20622;BME280;10470;42.670;23.354;2023-02-08T08:27:47;96636.81;;;-1.90;100.00
20622;BME280;10470;42.670;23.354;2023-02-08T08:30:33;96637.81;;;-1.94;100.00
20622;BME280;10470;42.670;23.354;2023-02-08T08:33:18;96647.00;;;-2.22;100.00
20622;BME280;10470;42.670;23.354;2023-02-08T08:36:06;96648.44;;;-1.86;100.00
20622;BME280;10470;42.670;23.354;2023-02-08T08:38:51;96642.22;;;-1.99;100.00
20622;BME280;10470;42.670;23.354;2023-02-08T08:41:37;96640.91;;;-1.92;100.00
20622;BME280;10470;42.670;23.354;2023-02-08T08:44:29;96640.66;;;-2.00;100.00
20622;BME280;10470;42.670;23.354;2023-02-08T08:47:39;96652.69;;;-1.85;100.00
20622;BME280;10470;42.670;23.354;2023-02-08T08:50:27;96651.78;;;-1.59;100.00
20622;BME280;10470;42.670;23.354;2023-02-08T08:53:15;96661.00;;;-1.78;100.00
20622;BME280;10470;42.670;23.354;2023-02-08T08:56:14;96651.13;;;-1.86;100.00
20622;BME280;10470;42.670;23.354;2023-02-08T08:59:11;96659.59;;;-1.84;100.00
20622;BME280;10470;42.670;23.354;2023-02-08T09:02:03;96668.28;;;-1.57;100.00
20622;BME280;10470;42.670;23.354;2023-02-08T09:04:49;96651.66;;;-1.33;100.00
20622;BME280;10470;42.670;23.354;2023-02-08T09:07:35;96670.09;;;-1.11;100.00
20622;BME280;10470;42.670;23.354;2023-02-08T09:10:21;96680.69;;;-0.93;100.00
20622;BME280;10470;42.670;23.354;2023-02-08T09:13:07;96674.38;;;-1.48;100.00
20622;BME280;10470;42.670;23.354;2023-02-08T09:15:52;96678.34;;;-1.24;100.00
20622;BME280;10470;42.670;23.354;2023-02-08T09:18:38;96678.81;;;-1.01;100.00
20622;BME280;10470;42.670;23.354;2023-02-08T09:21:24;96679.00;;;-1.06;100.00
20622;BME280;10470;42.670;23.354;2023-02-08T09:24:10;96686.81;;;-1.22;100.00
20622;BME280;10470;42.670;23.354;2023-02-08T09:26:55;96684.13;;;-1.22;100.00
20622;BME280;10470;42.670;23.354;2023-02-08T09:29:41;96683.19;;;-1.18;100.00
20622;BME280;10470;42.670;23.354;2023-02-08T09:32:30;96686.28;;;-1.37;100.00
20622;BME280;10470;42.670;23.354;2023-02-08T09:35:18;96693.53;;;-1.37;100.00
20622;BME280;10470;42.670;23.354;2023-02-08T09:38:03;96691.44;;;-1.32;100.00
20622;BME280;10470;42.670;23.354;2023-02-08T09:47:02;96680.75;;;-1.32;100.00
20622;BME280;10470;42.670;23.354;2023-02-08T09:52:54;96669.56;;;-1.04;100.00
20622;BME280;10470;42.670;23.354;2023-02-08T09:55:54;96670.88;;;-0.89;100.00
20622;BME280;10470;42.670;23.354;2023-02-08T09:58:46;96667.63;;;-0.95;100.00
20622;BME280;10470;42.670;23.354;2023-02-08T10:01:34;96671.34;;;-0.66;100.00
20622;BME280;10470;42.670;23.354;2023-02-08T10:04:40;96670.78;;;-0.38;100.00
20622;BME280;10470;42.670;23.354;2023-02-08T10:07:30;96671.97;;;-0.48;100.00
20622;BME280;10470;42.670;23.354;2023-02-08T10:13:59;96666.75;;;-0.86;100.00
20622;BME280;10470;42.670;23.354;2023-02-08T10:20:43;96655.94;;;-0.90;100.00
20622;BME280;10470;42.670;23.354;2023-02-08T10:23:45;96661.16;;;-0.52;100.00
20622;BME280;10470;42.670;23.354;2023-02-08T10:26:46;96666.25;;;-0.59;100.00
20622;BME280;10470;42.670;23.354;2023-02-08T10:29:49;96657.75;;;-0.28;100.00
20622;BME280;10470;42.670;23.354;2023-02-08T10:32:49;96661.84;;;-0.09;100.00
20622;BME280;10470;42.670;23.354;2023-02-08T10:35:41;96665.88;;;0.09;100.00
20622;BME280;10470;42.670;23.354;2023-02-08T10:38:30;96662.47;;;0.21;100.00
20622;BME280;10470;42.670;23.354;2023-02-08T10:41:20;96662.22;;;1.00;100.00
20622;BME280;10470;42.670;23.354;2023-02-08T10:44:22;96672.97;;;1.40;100.00
20622;BME280;10470;42.670;23.354;2023-02-08T10:47:43;96665.22;;;1.51;100.00
20622;BME280;10470;42.670;23.354;2023-02-08T10:50:34;96657.69;;;1.16;100.00
20622;BME280;10470;42.670;23.354;2023-02-08T10:53:21;96666.09;;;1.55;100.00
20622;BME280;10470;42.670;23.354;2023-02-08T10:56:20;96671.56;;;1.18;100.00
20622;BME280;10470;42.670;23.354;2023-02-08T10:59:20;96660.03;;;2.02;100.00
20622;BME280;10470;42.670;23.354;2023-02-08T11:02:20;96671.84;;;1.41;100.00
20622;BME280;10470;42.670;23.354;2023-02-08T11:05:17;96681.88;;;1.57;100.00
20622;BME280;10470;42.670;23.354;2023-02-08T11:08:12;96677.00;;;1.34;100.00
20622;BME280;10470;42.670;23.354;2023-02-08T11:11:05;96676.25;;;1.21;100.00
20622;BME280;10470;42.670;23.354;2023-02-08T11:13:52;96684.13;;;0.40;100.00
20622;BME280;10470;42.670;23.354;2023-02-08T11:16:37;96679.31;;;0.21;100.00
20622;BME280;10470;42.670;23.354;2023-02-08T11:22:19;96680.88;;;-0.23;100.00
20622;BME280;10470;42.670;23.354;2023-02-08T11:25:06;96677.84;;;0.12;100.00
20622;BME280;10470;42.670;23.354;2023-02-08T11:27:52;96674.81;;;0.01;100.00
20622;BME280;10470;42.670;23.354;2023-02-08T11:30:37;96679.47;;;-0.41;100.00
20622;BME280;10470;42.670;23.354;2023-02-08T11:33:22;96676.88;;;-0.17;100.00
20622;BME280;10470;42.670;23.354;2023-02-08T11:36:12;96682.69;;;-0.15;100.00
20622;BME280;10470;42.670;23.354;2023-02-08T11:39:01;96675.09;;;-0.46;100.00
20622;BME280;10470;42.670;23.354;2023-02-08T11:41:49;96671.78;;;-0.43;100.00
20622;BME280;10470;42.670;23.354;2023-02-08T11:44:41;96663.69;;;-0.55;100.00
20622;BME280;10470;42.670;23.354;2023-02-08T11:47:33;96671.22;;;-0.70;100.00
20622;BME280;10470;42.670;23.354;2023-02-08T11:50:25;96666.75;;;-0.86;100.00
20622;BME280;10470;42.670;23.354;2023-02-08T11:53:30;96670.63;;;-0.54;100.00
20622;BME280;10470;42.670;23.354;2023-02-08T11:56:23;96669.19;;;-0.52;100.00
20622;BME280;10470;42.670;23.354;2023-02-08T12:01:54;96685.03;;;-0.47;100.00
20622;BME280;10470;42.670;23.354;2023-02-08T12:04:40;96693.06;;;-0.47;100.00
20622;BME280;10470;42.670;23.354;2023-02-08T12:11:21;96682.75;;;-0.57;100.00
20622;BME280;10470;42.670;23.354;2023-02-08T12:23:39;96674.94;;;-0.62;100.00
20622;BME280;10470;42.670;23.354;2023-02-08T12:29:35;96662.19;;;-0.65;100.00
20622;BME280;10470;42.670;23.354;2023-02-08T12:50:57;96674.50;;;-0.31;100.00
20622;BME280;10470;42.670;23.354;2023-02-08T12:53:49;96679.13;;;-0.40;100.00
20622;BME280;10470;42.670;23.354;2023-02-08T12:56:42;96678.44;;;-0.49;100.00
20622;BME280;10470;42.670;23.354;2023-02-08T12:59:37;96696.44;;;-0.37;100.00
20622;BME280;10470;42.670;23.354;2023-02-08T13:02:29;96692.66;;;-0.36;100.00
20622;BME280;10470;42.670;23.354;2023-02-08T13:05:21;96697.88;;;-0.40;100.00
20622;BME280;10470;42.670;23.354;2023-02-08T13:10:57;96695.22;;;-0.40;100.00
20622;BME280;10470;42.670;23.354;2023-02-08T13:13:52;96681.44;;;-0.51;100.00
20622;BME280;10470;42.670;23.354;2023-02-08T13:16:44;96700.81;;;-0.33;100.00
20622;BME280;10470;42.670;23.354;2023-02-08T13:22:41;96706.63;;;-0.31;100.00
20622;BME280;10470;42.670;23.354;2023-02-08T13:25:34;96702.84;;;-0.30;100.00
20622;BME280;10470;42.670;23.354;2023-02-08T13:28:22;96710.78;;;-0.21;100.00
20622;BME280;10470;42.670;23.354;2023-02-08T13:31:14;96713.94;;;-0.40;100.00
20622;BME280;10470;42.670;23.354;2023-02-08T13:34:07;96700.66;;;-0.49;100.00
20622;BME280;10470;42.670;23.354;2023-02-08T13:37:02;96699.25;;;-0.55;100.00
20622;BME280;10470;42.670;23.354;2023-02-08T13:39:50;96708.13;;;-0.42;100.00
20622;BME280;10470;42.670;23.354;2023-02-08T13:42:52;96719.19;;;-0.43;100.00
20622;BME280;10470;42.670;23.354;2023-02-08T13:45:43;96706.13;;;-0.66;100.00
20622;BME280;10470;42.670;23.354;2023-02-08T13:48:44;96712.06;;;-0.60;100.00
20622;BME280;10470;42.670;23.354;2023-02-08T13:54:15;96719.38;;;-0.70;100.00
20622;BME280;10470;42.670;23.354;2023-02-08T13:57:01;96723.88;;;-0.82;100.00
20622;BME280;10470;42.670;23.354;2023-02-08T14:00:19;96722.56;;;-0.76;100.00
20622;BME280;10470;42.670;23.354;2023-02-08T14:08:56;96727.03;;;-0.80;100.00
20622;BME280;10470;42.670;23.354;2023-02-08T14:11:48;96730.66;;;-0.85;100.00
20622;BME280;10470;42.670;23.354;2023-02-08T14:14:35;96730.69;;;-0.64;100.00
20622;BME280;10470;42.670;23.354;2023-02-08T14:17:27;96732.81;;;-0.78;100.00
20622;BME280;10470;42.670;23.354;2023-02-08T14:20:25;96730.28;;;-0.75;100.00
20622;BME280;10470;42.670;23.354;2023-02-08T14:23:20;96731.06;;;-1.04;100.00
20622;BME280;10470;42.670;23.354;2023-02-08T14:26:08;96733.56;;;-0.99;100.00
20622;BME280;10470;42.670;23.354;2023-02-08T14:29:04;96737.66;;;-1.01;100.00
20622;BME280;10470;42.670;23.354;2023-02-08T14:31:51;96740.91;;;-0.87;100.00
20622;BME280;10470;42.670;23.354;2023-02-08T14:34:38;96731.53;;;-1.02;100.00
20622;BME280;10470;42.670;23.354;2023-02-08T14:37:30;96725.25;;;-1.27;100.00
20622;BME280;10470;42.670;23.354;2023-02-08T14:49:25;96743.66;;;-1.34;100.00
20622;BME280;10470;42.670;23.354;2023-02-08T14:52:18;96742.53;;;-1.24;100.00
20622;BME280;10470;42.670;23.354;2023-02-08T14:55:20;96745.22;;;-1.24;100.00
20622;BME280;10470;42.670;23.354;2023-02-08T14:58:14;96738.81;;;-1.41;100.00
20622;BME280;10470;42.670;23.354;2023-02-08T15:01:24;96750.03;;;-1.18;100.00
20622;BME280;10470;42.670;23.354;2023-02-08T15:04:17;96757.94;;;-1.30;100.00
20622;BME280;10470;42.670;23.354;2023-02-08T15:10:15;96753.25;;;-1.33;100.00
20622;BME280;10470;42.670;23.354;2023-02-08T15:13:04;96749.84;;;-1.51;100.00
20622;BME280;10470;42.670;23.354;2023-02-08T15:15:53;96758.56;;;-1.63;100.00
20622;BME280;10470;42.670;23.354;2023-02-08T15:18:44;96763.59;;;-1.70;100.00
20622;BME280;10470;42.670;23.354;2023-02-08T15:21:31;96750.44;;;-1.92;100.00
20622;BME280;10470;42.670;23.354;2023-02-08T15:24:22;96757.84;;;-1.98;100.00
20622;BME280;10470;42.670;23.354;2023-02-08T15:27:18;96767.28;;;-1.92;100.00
20622;BME280;10470;42.670;23.354;2023-02-08T15:30:05;96734.31;;;-2.22;100.00
20622;BME280;10470;42.670;23.354;2023-02-08T15:32:53;96764.59;;;-2.01;100.00
20622;BME280;10470;42.670;23.354;2023-02-08T15:35:39;96761.78;;;-2.04;100.00
20622;BME280;10470;42.670;23.354;2023-02-08T15:38:27;96767.91;;;-2.30;100.00
20622;BME280;10470;42.670;23.354;2023-02-08T15:41:23;96771.34;;;-2.21;100.00
20622;BME280;10470;42.670;23.354;2023-02-08T15:44:21;96762.75;;;-2.17;100.00
20622;BME280;10470;42.670;23.354;2023-02-08T15:47:15;96766.97;;;-2.25;100.00
20622;BME280;10470;42.670;23.354;2023-02-08T15:50:04;96767.13;;;-2.30;100.00
20622;BME280;10470;42.670;23.354;2023-02-08T15:52:59;96763.03;;;-2.36;100.00
20622;BME280;10470;42.670;23.354;2023-02-08T15:55:48;96741.38;;;-2.35;100.00
20622;BME280;10470;42.670;23.354;2023-02-08T15:58:38;96764.47;;;-2.22;100.00
20622;BME280;10470;42.670;23.354;2023-02-08T16:01:25;96770.75;;;-2.17;100.00
20622;BME280;10470;42.670;23.354;2023-02-08T16:04:11;96757.41;;;-2.35;100.00
20622;BME280;10470;42.670;23.354;2023-02-08T16:06:57;96772.97;;;-2.28;100.00
20622;BME280;10470;42.670;23.354;2023-02-08T16:09:45;96771.38;;;-2.38;100.00
20622;BME280;10470;42.670;23.354;2023-02-08T16:12:31;96774.53;;;-2.36;100.00
20622;BME280;10470;42.670;23.354;2023-02-08T16:15:55;96779.88;;;-2.36;100.00
20622;BME280;10470;42.670;23.354;2023-02-08T16:18:46;96771.22;;;-2.50;100.00
20622;BME280;10470;42.670;23.354;2023-02-08T16:21:39;96772.00;;;-2.58;100.00
20622;BME280;10470;42.670;23.354;2023-02-08T16:24:27;96782.97;;;-2.60;100.00
20622;BME280;10470;42.670;23.354;2023-02-08T16:27:25;96779.03;;;-2.80;100.00
20622;BME280;10470;42.670;23.354;2023-02-08T16:30:19;96783.59;;;-2.72;100.00
20622;BME280;10470;42.670;23.354;2023-02-08T16:33:06;96793.47;;;-2.64;100.00
20622;BME280;10470;42.670;23.354;2023-02-08T16:35:53;96792.97;;;-2.83;100.00
20622;BME280;10470;42.670;23.354;2023-02-08T16:41:59;96802.56;;;-2.82;100.00
20622;BME280;10470;42.670;23.354;2023-02-08T16:47:53;96790.16;;;-2.78;100.00
20622;BME280;10470;42.670;23.354;2023-02-08T16:50:39;96796.59;;;-2.79;100.00
20622;BME280;10470;42.670;23.354;2023-02-08T16:53:27;96794.66;;;-2.96;100.00
20622;BME280;10470;42.670;23.354;2023-02-08T16:56:14;96804.38;;;-3.09;100.00
20622;BME280;10470;42.670;23.354;2023-02-08T16:59:00;96793.09;;;-3.05;100.00
20622;BME280;10470;42.670;23.354;2023-02-08T17:01:45;96795.25;;;-3.08;100.00
20622;BME280;10470;42.670;23.354;2023-02-08T17:04:32;96759.13;;;-3.31;100.00
20622;BME280;10470;42.670;23.354;2023-02-08T17:07:19;96801.03;;;-3.14;100.00
20622;BME280;10470;42.670;23.354;2023-02-08T17:10:06;96800.75;;;-3.04;100.00
20622;BME280;10470;42.670;23.354;2023-02-08T17:12:52;96803.75;;;-2.97;100.00
20622;BME280;10470;42.670;23.354;2023-02-08T17:15:37;96800.13;;;-3.10;100.00
20622;BME280;10470;42.670;23.354;2023-02-08T17:18:23;96799.63;;;-3.12;100.00